sensor_id;sensor_type;location;lat;lon;timestamp;temperature;humidity
5960;DHT22;3006;50.956;7.002;2024-03-07T00:00:47;6.70;89.00
5960;DHT22;3006;50.956;7.002;2024-03-07T00:03:17;6.70;88.70
5960;DHT22;3006;50.956;7.002;2024-03-07T00:05:46;6.80;88.60
5960;DHT22;3006;50.956;7.002;2024-03-07T00:08:14;6.90;88.30
5960;DHT22;3006;50.956;7.002;2024-03-07T00:10:43;6.90;87.90
5960;DHT22;3006;50.956;7.002;2024-03-07T00:13:13;6.90;87.90
5960;DHT22;3006;50.956;7.002;2024-03-07T00:15:43;6.90;87.50
5960;DHT22;3006;50.956;7.002;2024-03-07T00:18:11;6.80;87.80
5960;DHT22;3006;50.956;7.002;2024-03-07T00:20:42;6.70;88.40
5960;DHT22;3006;50.956;7.002;2024-03-07T00:23:12;6.60;88.70
5960;DHT22;3006;50.956;7.002;2024-03-07T00:25:40;6.50;88.40
5960;DHT22;3006;50.956;7.002;2024-03-07T00:28:09;6.50;88.70
5960;DHT22;3006;50.956;7.002;2024-03-07T00:30:39;6.40;88.80
5960;DHT22;3006;50.956;7.002;2024-03-07T00:33:07;6.40;89.00
5960;DHT22;3006;50.956;7.002;2024-03-07T00:35:36;6.40;89.00
5960;DHT22;3006;50.956;7.002;2024-03-07T00:38:04;6.30;89.20
5960;DHT22;3006;50.956;7.002;2024-03-07T00:40:32;6.30;89.40
5960;DHT22;3006;50.956;7.002;2024-03-07T00:43:01;6.20;89.40
5960;DHT22;3006;50.956;7.002;2024-03-07T00:45:29;6.20;89.50
5960;DHT22;3006;50.956;7.002;2024-03-07T00:48:01;6.10;89.70
5960;DHT22;3006;50.956;7.002;2024-03-07T00:50:30;6.20;89.40
5960;DHT22;3006;50.956;7.002;2024-03-07T00:52:59;6.10;89.20
5960;DHT22;3006;50.956;7.002;2024-03-07T00:55:27;6.20;89.40
5960;DHT22;3006;50.956;7.002;2024-03-07T00:57:56;6.10;89.70
5960;DHT22;3006;50.956;7.002;2024-03-07T01:00:25;6.10;89.20
5960;DHT22;3006;50.956;7.002;2024-03-07T01:02:55;6.00;89.70
5960;DHT22;3006;50.956;7.002;2024-03-07T01:05:25;6.00;90.10
5960;DHT22;3006;50.956;7.002;2024-03-07T01:07:54;6.00;90.30
5960;DHT22;3006;50.956;7.002;2024-03-07T01:10:22;6.00;89.90
5960;DHT22;3006;50.956;7.002;2024-03-07T01:12:52;6.10;90.00
5960;DHT22;3006;50.956;7.002;2024-03-07T01:15:24;6.30;88.90
5960;DHT22;3006;50.956;7.002;2024-03-07T01:17:53;6.30;88.50
5960;DHT22;3006;50.956;7.002;2024-03-07T01:20:24;6.30;88.30
5960;DHT22;3006;50.956;7.002;2024-03-07T01:22:54;6.30;88.60
5960;DHT22;3006;50.956;7.002;2024-03-07T01:25:24;6.20;88.60
5960;DHT22;3006;50.956;7.002;2024-03-07T01:27:54;6.10;88.90
5960;DHT22;3006;50.956;7.002;2024-03-07T01:30:23;6.10;88.90
5960;DHT22;3006;50.956;7.002;2024-03-07T01:32:55;6.10;89.00
5960;DHT22;3006;50.956;7.002;2024-03-07T01:35:23;6.00;89.10
5960;DHT22;3006;50.956;7.002;2024-03-07T01:37:54;6.00;89.00
5960;DHT22;3006;50.956;7.002;2024-03-07T01:40:22;5.90;89.40
5960;DHT22;3006;50.956;7.002;2024-03-07T01:42:55;5.90;89.50
5960;DHT22;3006;50.956;7.002;2024-03-07T01:45:23;5.90;89.50
5960;DHT22;3006;50.956;7.002;2024-03-07T01:47:53;5.90;89.50
5960;DHT22;3006;50.956;7.002;2024-03-07T01:50:25;5.80;89.60
5960;DHT22;3006;50.956;7.002;2024-03-07T01:52:56;5.80;89.60
5960;DHT22;3006;50.956;7.002;2024-03-07T01:55:25;5.80;89.10
5960;DHT22;3006;50.956;7.002;2024-03-07T01:57:57;5.70;89.60
5960;DHT22;3006;50.956;7.002;2024-03-07T02:00:27;5.80;89.30
5960;DHT22;3006;50.956;7.002;2024-03-07T02:02:55;5.80;89.20
5960;DHT22;3006;50.956;7.002;2024-03-07T02:05:24;5.60;89.60
5960;DHT22;3006;50.956;7.002;2024-03-07T02:07:53;5.50;90.30
5960;DHT22;3006;50.956;7.002;2024-03-07T02:10:23;5.50;90.10
5960;DHT22;3006;50.956;7.002;2024-03-07T02:12:52;5.50;90.30
5960;DHT22;3006;50.956;7.002;2024-03-07T02:15:21;5.30;90.50
5960;DHT22;3006;50.956;7.002;2024-03-07T02:17:51;5.30;91.20
5960;DHT22;3006;50.956;7.002;2024-03-07T02:20:22;5.40;90.60
5960;DHT22;3006;50.956;7.002;2024-03-07T02:22:51;5.30;90.70
5960;DHT22;3006;50.956;7.002;2024-03-07T02:25:20;5.40;90.50
5960;DHT22;3006;50.956;7.002;2024-03-07T02:27:48;5.30;90.50
5960;DHT22;3006;50.956;7.002;2024-03-07T02:30:18;5.30;90.00
5960;DHT22;3006;50.956;7.002;2024-03-07T02:32:47;5.30;90.50
5960;DHT22;3006;50.956;7.002;2024-03-07T02:35:19;5.20;90.60
5960;DHT22;3006;50.956;7.002;2024-03-07T02:37:48;5.30;91.10
5960;DHT22;3006;50.956;7.002;2024-03-07T02:40:18;5.30;90.50
5960;DHT22;3006;50.956;7.002;2024-03-07T02:42:47;5.20;90.80
5960;DHT22;3006;50.956;7.002;2024-03-07T02:45:16;5.20;90.80
5960;DHT22;3006;50.956;7.002;2024-03-07T02:47:45;5.30;90.10
5960;DHT22;3006;50.956;7.002;2024-03-07T02:50:13;5.30;89.70
5960;DHT22;3006;50.956;7.002;2024-03-07T02:52:41;5.40;89.40
5960;DHT22;3006;50.956;7.002;2024-03-07T02:55:10;5.40;89.20
5960;DHT22;3006;50.956;7.002;2024-03-07T02:57:42;5.50;88.70
5960;DHT22;3006;50.956;7.002;2024-03-07T03:00:12;5.50;88.30
5960;DHT22;3006;50.956;7.002;2024-03-07T03:02:57;5.50;88.20
5960;DHT22;3006;50.956;7.002;2024-03-07T03:05:26;5.40;88.30
5960;DHT22;3006;50.956;7.002;2024-03-07T03:07:54;5.50;88.30
5960;DHT22;3006;50.956;7.002;2024-03-07T03:10:24;5.40;88.30
5960;DHT22;3006;50.956;7.002;2024-03-07T03:12:58;5.30;88.30
5960;DHT22;3006;50.956;7.002;2024-03-07T03:15:29;5.20;88.90
5960;DHT22;3006;50.956;7.002;2024-03-07T03:17:58;5.20;89.00
5960;DHT22;3006;50.956;7.002;2024-03-07T03:20:29;5.00;90.10
5960;DHT22;3006;50.956;7.002;2024-03-07T03:23:03;5.00;89.40
5960;DHT22;3006;50.956;7.002;2024-03-07T03:25:46;5.00;90.00
5960;DHT22;3006;50.956;7.002;2024-03-07T03:28:17;5.00;89.60
5960;DHT22;3006;50.956;7.002;2024-03-07T03:30:48;5.00;89.50
5960;DHT22;3006;50.956;7.002;2024-03-07T03:33:17;4.70;90.70
5960;DHT22;3006;50.956;7.002;2024-03-07T03:35:46;4.90;90.40
5960;DHT22;3006;50.956;7.002;2024-03-07T03:38:16;4.90;90.10
5960;DHT22;3006;50.956;7.002;2024-03-07T03:40:47;4.90;90.00
5960;DHT22;3006;50.956;7.002;2024-03-07T03:43:18;4.90;89.80
5960;DHT22;3006;50.956;7.002;2024-03-07T03:45:46;4.70;90.70
5960;DHT22;3006;50.956;7.002;2024-03-07T03:48:15;4.70;91.00
5960;DHT22;3006;50.956;7.002;2024-03-07T03:50:45;4.70;91.10
5960;DHT22;3006;50.956;7.002;2024-03-07T03:53:14;4.60;90.70
5960;DHT22;3006;50.956;7.002;2024-03-07T03:55:43;4.50;91.20
5960;DHT22;3006;50.956;7.002;2024-03-07T03:58:12;4.50;91.20
5960;DHT22;3006;50.956;7.002;2024-03-07T04:00:42;4.50;90.90
5960;DHT22;3006;50.956;7.002;2024-03-07T04:03:11;4.50;90.70
5960;DHT22;3006;50.956;7.002;2024-03-07T04:05:39;4.50;91.10
5960;DHT22;3006;50.956;7.002;2024-03-07T04:08:08;4.50;90.80
5960;DHT22;3006;50.956;7.002;2024-03-07T04:10:37;4.50;90.80
5960;DHT22;3006;50.956;7.002;2024-03-07T04:13:06;4.50;90.90
5960;DHT22;3006;50.956;7.002;2024-03-07T04:15:34;4.40;91.10
5960;DHT22;3006;50.956;7.002;2024-03-07T04:18:06;4.40;91.80
5960;DHT22;3006;50.956;7.002;2024-03-07T04:20:35;4.30;91.90
5960;DHT22;3006;50.956;7.002;2024-03-07T04:23:03;4.40;91.70
5960;DHT22;3006;50.956;7.002;2024-03-07T04:25:34;4.40;91.40
5960;DHT22;3006;50.956;7.002;2024-03-07T04:28:03;4.30;92.10
5960;DHT22;3006;50.956;7.002;2024-03-07T04:30:32;4.30;91.90
5960;DHT22;3006;50.956;7.002;2024-03-07T04:33:00;4.30;91.60
5960;DHT22;3006;50.956;7.002;2024-03-07T04:35:30;4.30;91.90
5960;DHT22;3006;50.956;7.002;2024-03-07T04:37:59;4.20;92.20
5960;DHT22;3006;50.956;7.002;2024-03-07T04:40:27;4.20;92.50
5960;DHT22;3006;50.956;7.002;2024-03-07T04:42:55;4.30;91.80
5960;DHT22;3006;50.956;7.002;2024-03-07T04:45:23;4.40;91.50
5960;DHT22;3006;50.956;7.002;2024-03-07T04:47:52;4.30;91.70
5960;DHT22;3006;50.956;7.002;2024-03-07T04:50:20;4.30;91.30
5960;DHT22;3006;50.956;7.002;2024-03-07T04:52:50;4.30;91.40
5960;DHT22;3006;50.956;7.002;2024-03-07T04:55:19;4.30;91.30
5960;DHT22;3006;50.956;7.002;2024-03-07T04:57:48;4.20;91.70
5960;DHT22;3006;50.956;7.002;2024-03-07T05:00:16;4.10;91.90
5960;DHT22;3006;50.956;7.002;2024-03-07T05:02:49;4.20;92.10
5960;DHT22;3006;50.956;7.002;2024-03-07T05:05:19;4.30;91.90
5960;DHT22;3006;50.956;7.002;2024-03-07T05:07:54;4.10;91.70
5960;DHT22;3006;50.956;7.002;2024-03-07T05:10:23;4.00;91.80
5960;DHT22;3006;50.956;7.002;2024-03-07T05:12:51;4.00;92.70
5960;DHT22;3006;50.956;7.002;2024-03-07T05:15:21;4.10;92.10
5960;DHT22;3006;50.956;7.002;2024-03-07T05:17:52;4.10;91.70
5960;DHT22;3006;50.956;7.002;2024-03-07T05:20:23;4.10;92.30
5960;DHT22;3006;50.956;7.002;2024-03-07T05:22:53;4.20;92.10
5960;DHT22;3006;50.956;7.002;2024-03-07T05:25:22;4.40;91.50
5960;DHT22;3006;50.956;7.002;2024-03-07T05:27:50;4.40;91.20
5960;DHT22;3006;50.956;7.002;2024-03-07T05:30:21;4.40;91.10
5960;DHT22;3006;50.956;7.002;2024-03-07T05:32:51;4.40;91.30
5960;DHT22;3006;50.956;7.002;2024-03-07T05:35:21;4.50;91.10
5960;DHT22;3006;50.956;7.002;2024-03-07T05:37:49;4.50;90.90
5960;DHT22;3006;50.956;7.002;2024-03-07T05:40:20;4.50;91.50
5960;DHT22;3006;50.956;7.002;2024-03-07T05:42:49;4.50;91.50
5960;DHT22;3006;50.956;7.002;2024-03-07T05:45:20;4.70;90.90
5960;DHT22;3006;50.956;7.002;2024-03-07T05:47:48;4.70;91.20
5960;DHT22;3006;50.956;7.002;2024-03-07T05:50:17;4.70;91.20
5960;DHT22;3006;50.956;7.002;2024-03-07T05:52:46;4.80;90.90
5960;DHT22;3006;50.956;7.002;2024-03-07T05:55:15;4.80;91.00
5960;DHT22;3006;50.956;7.002;2024-03-07T05:57:48;4.90;90.80
5960;DHT22;3006;50.956;7.002;2024-03-07T06:00:17;4.90;90.80
5960;DHT22;3006;50.956;7.002;2024-03-07T06:02:55;4.90;91.20
5960;DHT22;3006;50.956;7.002;2024-03-07T06:05:23;4.90;90.80
5960;DHT22;3006;50.956;7.002;2024-03-07T06:07:54;4.80;91.30
5960;DHT22;3006;50.956;7.002;2024-03-07T06:10:25;4.70;91.50
5960;DHT22;3006;50.956;7.002;2024-03-07T06:12:55;4.80;91.30
5960;DHT22;3006;50.956;7.002;2024-03-07T06:15:38;5.00;90.80
5960;DHT22;3006;50.956;7.002;2024-03-07T06:18:06;4.90;91.20
5960;DHT22;3006;50.956;7.002;2024-03-07T06:20:39;4.70;91.40
5960;DHT22;3006;50.956;7.002;2024-03-07T06:23:08;4.70;91.60
5960;DHT22;3006;50.956;7.002;2024-03-07T06:25:41;4.70;91.60
5960;DHT22;3006;50.956;7.002;2024-03-07T06:28:17;4.80;90.90
5960;DHT22;3006;50.956;7.002;2024-03-07T06:30:46;4.70;91.50
5960;DHT22;3006;50.956;7.002;2024-03-07T06:33:16;4.70;91.20
5960;DHT22;3006;50.956;7.002;2024-03-07T06:35:49;4.70;91.40
5960;DHT22;3006;50.956;7.002;2024-03-07T06:38:18;4.60;91.70
5960;DHT22;3006;50.956;7.002;2024-03-07T06:40:51;4.50;92.10
5960;DHT22;3006;50.956;7.002;2024-03-07T06:43:21;4.50;92.30
5960;DHT22;3006;50.956;7.002;2024-03-07T06:45:50;4.50;92.40
5960;DHT22;3006;50.956;7.002;2024-03-07T06:48:18;4.70;91.70
5960;DHT22;3006;50.956;7.002;2024-03-07T06:50:48;4.70;91.50
5960;DHT22;3006;50.956;7.002;2024-03-07T06:53:18;4.80;90.80
5960;DHT22;3006;50.956;7.002;2024-03-07T06:55:48;4.80;91.20
5960;DHT22;3006;50.956;7.002;2024-03-07T06:58:21;5.00;90.50
5960;DHT22;3006;50.956;7.002;2024-03-07T07:00:50;5.00;89.80
5960;DHT22;3006;50.956;7.002;2024-03-07T07:03:21;5.00;89.50
5960;DHT22;3006;50.956;7.002;2024-03-07T07:05:50;5.00;89.00
5960;DHT22;3006;50.956;7.002;2024-03-07T07:08:19;5.10;88.80
5960;DHT22;3006;50.956;7.002;2024-03-07T07:10:47;5.10;88.70
5960;DHT22;3006;50.956;7.002;2024-03-07T07:13:16;5.20;88.30
5960;DHT22;3006;50.956;7.002;2024-03-07T07:15:46;5.30;88.40
5960;DHT22;3006;50.956;7.002;2024-03-07T07:18:14;5.30;88.10
5960;DHT22;3006;50.956;7.002;2024-03-07T07:20:45;5.30;87.80
5960;DHT22;3006;50.956;7.002;2024-03-07T07:23:14;5.30;88.00
5960;DHT22;3006;50.956;7.002;2024-03-07T07:25:44;5.30;88.00
5960;DHT22;3006;50.956;7.002;2024-03-07T07:28:13;5.40;87.60
5960;DHT22;3006;50.956;7.002;2024-03-07T07:30:42;5.40;87.20
5960;DHT22;3006;50.956;7.002;2024-03-07T07:33:13;5.30;87.50
5960;DHT22;3006;50.956;7.002;2024-03-07T07:35:42;5.50;87.00
5960;DHT22;3006;50.956;7.002;2024-03-07T07:38:10;5.50;86.70
5960;DHT22;3006;50.956;7.002;2024-03-07T07:40:43;5.50;86.80
5960;DHT22;3006;50.956;7.002;2024-03-07T07:43:12;5.50;86.20
5960;DHT22;3006;50.956;7.002;2024-03-07T07:45:52;5.60;85.90
5960;DHT22;3006;50.956;7.002;2024-03-07T07:48:23;5.70;84.80
5960;DHT22;3006;50.956;7.002;2024-03-07T07:50:51;5.70;84.70
5960;DHT22;3006;50.956;7.002;2024-03-07T07:53:20;5.80;84.00
5960;DHT22;3006;50.956;7.002;2024-03-07T07:55:48;5.80;83.40
5960;DHT22;3006;50.956;7.002;2024-03-07T07:58:18;5.90;83.90
5960;DHT22;3006;50.956;7.002;2024-03-07T08:00:47;6.00;83.10
5960;DHT22;3006;50.956;7.002;2024-03-07T08:03:16;6.00;82.70
5960;DHT22;3006;50.956;7.002;2024-03-07T08:05:46;6.30;85.10
5960;DHT22;3006;50.956;7.002;2024-03-07T08:08:15;6.90;84.70
5960;DHT22;3006;50.956;7.002;2024-03-07T08:10:46;7.40;80.20
5960;DHT22;3006;50.956;7.002;2024-03-07T08:13:15;7.40;78.50
5960;DHT22;3006;50.956;7.002;2024-03-07T08:15:44;7.50;78.10
5960;DHT22;3006;50.956;7.002;2024-03-07T08:18:12;7.60;75.90
5960;DHT22;3006;50.956;7.002;2024-03-07T08:20:41;8.10;76.10
5960;DHT22;3006;50.956;7.002;2024-03-07T08:23:11;8.00;74.10
5960;DHT22;3006;50.956;7.002;2024-03-07T08:25:40;8.10;73.50
5960;DHT22;3006;50.956;7.002;2024-03-07T08:28:09;8.00;73.20
5960;DHT22;3006;50.956;7.002;2024-03-07T08:30:39;8.00;72.90
5960;DHT22;3006;50.956;7.002;2024-03-07T08:33:08;8.40;72.50
5960;DHT22;3006;50.956;7.002;2024-03-07T08:35:37;8.70;69.10
5960;DHT22;3006;50.956;7.002;2024-03-07T08:38:06;8.20;70.60
5960;DHT22;3006;50.956;7.002;2024-03-07T08:40:38;8.40;70.70
5960;DHT22;3006;50.956;7.002;2024-03-07T08:43:08;8.10;70.10
5960;DHT22;3006;50.956;7.002;2024-03-07T08:45:37;8.50;69.60
5960;DHT22;3006;50.956;7.002;2024-03-07T08:48:06;8.30;69.00
5960;DHT22;3006;50.956;7.002;2024-03-07T08:50:37;8.00;69.60
5960;DHT22;3006;50.956;7.002;2024-03-07T08:53:06;7.60;70.80
5960;DHT22;3006;50.956;7.002;2024-03-07T08:55:37;7.40;71.10
5960;DHT22;3006;50.956;7.002;2024-03-07T08:58:05;7.20;71.30
5960;DHT22;3006;50.956;7.002;2024-03-07T09:00:36;7.20;71.70
5960;DHT22;3006;50.956;7.002;2024-03-07T09:03:06;7.20;71.40
5960;DHT22;3006;50.956;7.002;2024-03-07T09:05:39;7.20;71.30
5960;DHT22;3006;50.956;7.002;2024-03-07T09:08:09;7.20;71.00
5960;DHT22;3006;50.956;7.002;2024-03-07T09:10:40;7.20;70.60
5960;DHT22;3006;50.956;7.002;2024-03-07T09:13:09;7.30;71.20
5960;DHT22;3006;50.956;7.002;2024-03-07T09:15:38;7.40;70.70
5960;DHT22;3006;50.956;7.002;2024-03-07T09:18:08;7.50;70.80
5960;DHT22;3006;50.956;7.002;2024-03-07T09:20:37;7.50;70.20
5960;DHT22;3006;50.956;7.002;2024-03-07T09:23:06;7.60;70.20
5960;DHT22;3006;50.956;7.002;2024-03-07T09:25:34;7.70;69.70
5960;DHT22;3006;50.956;7.002;2024-03-07T09:28:04;7.80;69.10
5960;DHT22;3006;50.956;7.002;2024-03-07T09:30:33;7.80;69.30
5960;DHT22;3006;50.956;7.002;2024-03-07T09:33:07;7.70;69.80
5960;DHT22;3006;50.956;7.002;2024-03-07T09:35:39;7.60;69.90
5960;DHT22;3006;50.956;7.002;2024-03-07T09:38:08;7.50;70.10
5960;DHT22;3006;50.956;7.002;2024-03-07T09:40:36;7.50;70.10
5960;DHT22;3006;50.956;7.002;2024-03-07T09:43:07;7.70;69.80
5960;DHT22;3006;50.956;7.002;2024-03-07T09:45:38;7.70;69.90
5960;DHT22;3006;50.956;7.002;2024-03-07T09:48:11;7.60;69.50
5960;DHT22;3006;50.956;7.002;2024-03-07T09:50:40;7.50;69.60
5960;DHT22;3006;50.956;7.002;2024-03-07T09:53:10;7.60;70.70
5960;DHT22;3006;50.956;7.002;2024-03-07T09:55:38;7.80;70.00
5960;DHT22;3006;50.956;7.002;2024-03-07T09:58:09;7.80;68.90
5960;DHT22;3006;50.956;7.002;2024-03-07T10:00:40;7.80;69.40
5960;DHT22;3006;50.956;7.002;2024-03-07T10:03:12;7.80;69.50
5960;DHT22;3006;50.956;7.002;2024-03-07T10:05:41;8.00;69.10
5960;DHT22;3006;50.956;7.002;2024-03-07T10:08:10;8.00;69.20
5960;DHT22;3006;50.956;7.002;2024-03-07T10:10:44;8.10;68.70
5960;DHT22;3006;50.956;7.002;2024-03-07T10:13:16;8.00;68.40
5960;DHT22;3006;50.956;7.002;2024-03-07T10:15:48;8.00;68.70
5960;DHT22;3006;50.956;7.002;2024-03-07T10:18:16;7.80;68.70
5960;DHT22;3006;50.956;7.002;2024-03-07T10:20:49;7.80;69.30
5960;DHT22;3006;50.956;7.002;2024-03-07T10:23:19;7.80;69.50
5960;DHT22;3006;50.956;7.002;2024-03-07T10:25:48;7.80;69.10
5960;DHT22;3006;50.956;7.002;2024-03-07T10:28:17;8.00;69.10
5960;DHT22;3006;50.956;7.002;2024-03-07T10:30:48;8.10;68.50
5960;DHT22;3006;50.956;7.002;2024-03-07T10:33:19;8.10;69.00
5960;DHT22;3006;50.956;7.002;2024-03-07T10:35:48;8.20;68.50
5960;DHT22;3006;50.956;7.002;2024-03-07T10:38:17;8.10;68.60
5960;DHT22;3006;50.956;7.002;2024-03-07T10:40:47;8.10;68.30
5960;DHT22;3006;50.956;7.002;2024-03-07T10:43:22;8.20;68.00
5960;DHT22;3006;50.956;7.002;2024-03-07T10:45:54;8.30;68.00
5960;DHT22;3006;50.956;7.002;2024-03-07T10:48:29;8.40;67.50
5960;DHT22;3006;50.956;7.002;2024-03-07T10:51:06;8.40;67.40
5960;DHT22;3006;50.956;7.002;2024-03-07T10:53:40;8.30;67.40
5960;DHT22;3006;50.956;7.002;2024-03-07T10:56:29;8.60;67.50
5960;DHT22;3006;50.956;7.002;2024-03-07T10:59:07;8.80;66.30
5960;DHT22;3006;50.956;7.002;2024-03-07T11:01:47;8.70;66.50
5960;DHT22;3006;50.956;7.002;2024-03-07T11:04:22;8.80;66.40
5960;DHT22;3006;50.956;7.002;2024-03-07T11:06:51;8.90;66.20
5960;DHT22;3006;50.956;7.002;2024-03-07T11:09:22;9.00;65.60
5960;DHT22;3006;50.956;7.002;2024-03-07T11:11:52;8.90;66.20
5960;DHT22;3006;50.956;7.002;2024-03-07T11:14:22;9.10;65.50
5960;DHT22;3006;50.956;7.002;2024-03-07T11:16:52;9.00;66.00
5960;DHT22;3006;50.956;7.002;2024-03-07T11:19:26;9.10;66.20
5960;DHT22;3006;50.956;7.002;2024-03-07T11:21:57;9.20;65.30
5960;DHT22;3006;50.956;7.002;2024-03-07T11:24:27;9.00;65.70
5960;DHT22;3006;50.956;7.002;2024-03-07T11:26:58;9.00;66.20
5960;DHT22;3006;50.956;7.002;2024-03-07T11:29:42;9.10;65.80
5960;DHT22;3006;50.956;7.002;2024-03-07T11:32:12;9.20;66.30
5960;DHT22;3006;50.956;7.002;2024-03-07T11:34:42;9.20;66.40
5960;DHT22;3006;50.956;7.002;2024-03-07T11:37:18;9.30;66.00
5960;DHT22;3006;50.956;7.002;2024-03-07T11:39:50;9.40;66.00
5960;DHT22;3006;50.956;7.002;2024-03-07T11:42:26;9.40;65.50
5960;DHT22;3006;50.956;7.002;2024-03-07T11:44:57;9.40;65.60
5960;DHT22;3006;50.956;7.002;2024-03-07T11:47:35;9.40;65.70
5960;DHT22;3006;50.956;7.002;2024-03-07T11:50:07;9.60;65.70
5960;DHT22;3006;50.956;7.002;2024-03-07T11:52:39;9.50;65.70
5960;DHT22;3006;50.956;7.002;2024-03-07T11:55:12;9.30;65.60
5960;DHT22;3006;50.956;7.002;2024-03-07T11:57:42;9.40;65.80
5960;DHT22;3006;50.956;7.002;2024-03-07T12:00:14;9.40;66.10
5960;DHT22;3006;50.956;7.002;2024-03-07T12:02:44;9.60;65.50
5960;DHT22;3006;50.956;7.002;2024-03-07T12:05:14;9.70;65.40
5960;DHT22;3006;50.956;7.002;2024-03-07T12:07:44;9.80;65.00
5960;DHT22;3006;50.956;7.002;2024-03-07T12:10:13;9.60;64.40
5960;DHT22;3006;50.956;7.002;2024-03-07T12:12:42;9.60;65.00
5960;DHT22;3006;50.956;7.002;2024-03-07T12:15:22;9.40;65.20
5960;DHT22;3006;50.956;7.002;2024-03-07T12:17:51;9.30;66.10
5960;DHT22;3006;50.956;7.002;2024-03-07T12:20:19;9.30;66.10
5960;DHT22;3006;50.956;7.002;2024-03-07T12:22:58;9.40;65.70
5960;DHT22;3006;50.956;7.002;2024-03-07T12:25:33;9.50;65.10
5960;DHT22;3006;50.956;7.002;2024-03-07T12:28:04;9.40;65.40
5960;DHT22;3006;50.956;7.002;2024-03-07T12:30:35;9.40;65.60
5960;DHT22;3006;50.956;7.002;2024-03-07T12:33:05;9.30;65.70
5960;DHT22;3006;50.956;7.002;2024-03-07T12:35:37;9.30;65.70
5960;DHT22;3006;50.956;7.002;2024-03-07T12:38:09;9.60;66.00
5960;DHT22;3006;50.956;7.002;2024-03-07T12:40:38;9.80;65.30
5960;DHT22;3006;50.956;7.002;2024-03-07T12:43:14;9.90;64.30
5960;DHT22;3006;50.956;7.002;2024-03-07T12:45:48;9.80;64.30
5960;DHT22;3006;50.956;7.002;2024-03-07T12:48:17;9.90;64.20
5960;DHT22;3006;50.956;7.002;2024-03-07T12:50:49;10.00;64.20
5960;DHT22;3006;50.956;7.002;2024-03-07T12:53:20;10.00;64.10
5960;DHT22;3006;50.956;7.002;2024-03-07T12:55:49;9.70;63.30
5960;DHT22;3006;50.956;7.002;2024-03-07T12:58:19;9.70;63.20
5960;DHT22;3006;50.956;7.002;2024-03-07T13:00:50;9.70;62.80
5960;DHT22;3006;50.956;7.002;2024-03-07T13:03:18;9.70;62.80
5960;DHT22;3006;50.956;7.002;2024-03-07T13:05:48;9.60;63.30
5960;DHT22;3006;50.956;7.002;2024-03-07T13:08:18;9.70;63.90
5960;DHT22;3006;50.956;7.002;2024-03-07T13:10:52;9.60;64.40
5960;DHT22;3006;50.956;7.002;2024-03-07T13:13:22;9.80;64.60
5960;DHT22;3006;50.956;7.002;2024-03-07T13:15:52;9.80;64.50
5960;DHT22;3006;50.956;7.002;2024-03-07T13:18:22;9.80;64.80
5960;DHT22;3006;50.956;7.002;2024-03-07T13:20:51;10.00;64.90
5960;DHT22;3006;50.956;7.002;2024-03-07T13:23:20;10.40;63.80
5960;DHT22;3006;50.956;7.002;2024-03-07T13:25:48;10.70;63.20
5960;DHT22;3006;50.956;7.002;2024-03-07T13:28:18;11.10;61.90
5960;DHT22;3006;50.956;7.002;2024-03-07T13:30:53;11.40;60.70
5960;DHT22;3006;50.956;7.002;2024-03-07T13:33:22;11.30;60.50
5960;DHT22;3006;50.956;7.002;2024-03-07T13:35:53;11.40;60.30
5960;DHT22;3006;50.956;7.002;2024-03-07T13:38:23;11.50;59.70
5960;DHT22;3006;50.956;7.002;2024-03-07T13:40:55;11.50;58.70
5960;DHT22;3006;50.956;7.002;2024-03-07T13:43:25;11.30;59.30
5960;DHT22;3006;50.956;7.002;2024-03-07T13:45:56;11.10;59.20
5960;DHT22;3006;50.956;7.002;2024-03-07T13:48:25;10.60;60.00
5960;DHT22;3006;50.956;7.002;2024-03-07T13:50:54;10.60;60.30
5960;DHT22;3006;50.956;7.002;2024-03-07T13:53:30;10.20;60.70
5960;DHT22;3006;50.956;7.002;2024-03-07T13:56:30;10.10;61.60
5960;DHT22;3006;50.956;7.002;2024-03-07T14:02:37;10.60;61.80
5960;DHT22;3006;50.956;7.002;2024-03-07T14:05:44;11.50;60.00
5960;DHT22;3006;50.956;7.002;2024-03-07T14:12:16;10.90;57.90
5960;DHT22;3006;50.956;7.002;2024-03-07T14:15:17;10.40;59.00
5960;DHT22;3006;50.956;7.002;2024-03-07T14:18:16;10.20;59.60
5960;DHT22;3006;50.956;7.002;2024-03-07T14:21:22;10.20;60.30
5960;DHT22;3006;50.956;7.002;2024-03-07T14:24:35;10.30;60.50
5960;DHT22;3006;50.956;7.002;2024-03-07T14:27:18;10.20;60.90
5960;DHT22;3006;50.956;7.002;2024-03-07T14:29:59;10.20;61.00
5960;DHT22;3006;50.956;7.002;2024-03-07T14:32:38;10.20;61.20
5960;DHT22;3006;50.956;7.002;2024-03-07T14:35:21;10.20;61.80
5960;DHT22;3006;50.956;7.002;2024-03-07T14:37:54;10.10;62.20
5960;DHT22;3006;50.956;7.002;2024-03-07T14:40:30;10.00;62.50
5960;DHT22;3006;50.956;7.002;2024-03-07T14:43:01;10.10;62.80
5960;DHT22;3006;50.956;7.002;2024-03-07T14:45:36;10.10;62.70
5960;DHT22;3006;50.956;7.002;2024-03-07T14:48:07;10.10;62.40
5960;DHT22;3006;50.956;7.002;2024-03-07T14:50:41;10.00;62.60
5960;DHT22;3006;50.956;7.002;2024-03-07T14:53:12;10.00;62.70
5960;DHT22;3006;50.956;7.002;2024-03-07T14:55:45;10.10;62.70
5960;DHT22;3006;50.956;7.002;2024-03-07T14:58:14;10.00;62.20
5960;DHT22;3006;50.956;7.002;2024-03-07T15:00:43;10.10;62.10
5960;DHT22;3006;50.956;7.002;2024-03-07T15:03:25;10.10;62.20
5960;DHT22;3006;50.956;7.002;2024-03-07T15:05:58;10.10;62.10
5960;DHT22;3006;50.956;7.002;2024-03-07T15:08:26;10.30;61.80
5960;DHT22;3006;50.956;7.002;2024-03-07T15:11:14;10.30;61.50
5960;DHT22;3006;50.956;7.002;2024-03-07T15:13:48;10.50;61.10
5960;DHT22;3006;50.956;7.002;2024-03-07T15:16:16;10.40;60.50
5960;DHT22;3006;50.956;7.002;2024-03-07T15:18:59;10.40;60.80
5960;DHT22;3006;50.956;7.002;2024-03-07T15:21:29;10.20;60.90
5960;DHT22;3006;50.956;7.002;2024-03-07T15:23:58;10.20;60.80
5960;DHT22;3006;50.956;7.002;2024-03-07T15:26:27;10.10;61.10
5960;DHT22;3006;50.956;7.002;2024-03-07T15:28:58;10.10;61.40
5960;DHT22;3006;50.956;7.002;2024-03-07T15:31:28;10.00;61.60
5960;DHT22;3006;50.956;7.002;2024-03-07T15:33:56;10.10;61.60
5960;DHT22;3006;50.956;7.002;2024-03-07T15:36:26;10.10;61.60
5960;DHT22;3006;50.956;7.002;2024-03-07T15:38:58;10.00;61.60
5960;DHT22;3006;50.956;7.002;2024-03-07T15:41:42;9.80;61.90
5960;DHT22;3006;50.956;7.002;2024-03-07T15:44:10;10.00;61.20
5960;DHT22;3006;50.956;7.002;2024-03-07T15:46:39;9.90;61.90
5960;DHT22;3006;50.956;7.002;2024-03-07T15:49:08;10.00;61.60
5960;DHT22;3006;50.956;7.002;2024-03-07T15:51:36;9.90;61.40
5960;DHT22;3006;50.956;7.002;2024-03-07T15:54:07;9.80;61.90
5960;DHT22;3006;50.956;7.002;2024-03-07T15:56:38;9.70;61.90
5960;DHT22;3006;50.956;7.002;2024-03-07T15:59:06;9.80;61.70
5960;DHT22;3006;50.956;7.002;2024-03-07T16:01:35;9.60;61.90
5960;DHT22;3006;50.956;7.002;2024-03-07T16:04:04;9.50;62.60
5960;DHT22;3006;50.956;7.002;2024-03-07T16:06:35;9.50;62.70
5960;DHT22;3006;50.956;7.002;2024-03-07T16:09:03;9.40;62.70
5960;DHT22;3006;50.956;7.002;2024-03-07T16:11:33;9.40;63.00
5960;DHT22;3006;50.956;7.002;2024-03-07T16:14:02;9.40;63.20
5960;DHT22;3006;50.956;7.002;2024-03-07T16:16:30;9.40;63.30
5960;DHT22;3006;50.956;7.002;2024-03-07T16:19:00;9.40;63.20
5960;DHT22;3006;50.956;7.002;2024-03-07T16:21:32;9.40;63.50
5960;DHT22;3006;50.956;7.002;2024-03-07T16:24:00;9.40;63.40
5960;DHT22;3006;50.956;7.002;2024-03-07T16:26:34;9.30;63.20
5960;DHT22;3006;50.956;7.002;2024-03-07T16:29:03;9.20;63.70
5960;DHT22;3006;50.956;7.002;2024-03-07T16:31:32;9.20;63.70
5960;DHT22;3006;50.956;7.002;2024-03-07T16:34:01;9.20;63.70
5960;DHT22;3006;50.956;7.002;2024-03-07T16:36:30;9.20;63.30
5960;DHT22;3006;50.956;7.002;2024-03-07T16:38:58;9.20;62.80
5960;DHT22;3006;50.956;7.002;2024-03-07T16:41:35;9.30;62.90
5960;DHT22;3006;50.956;7.002;2024-03-07T16:44:05;9.30;62.60
5960;DHT22;3006;50.956;7.002;2024-03-07T16:46:35;9.30;62.60